Latest Coastal Weather Observations for Cape Sorell

IDT60701

Issued at 9:32 pm EST Wednesday 29 July 2015 (issued every 10 minutes, with the page automatically refreshed every 10 minutes)

About coastal observations | Map of coastal stations | Coastal observations for TAS | Marine services | Other Formats
Station Details ID: 097000 Name: CAPE SORELL Lat: -42.20 Lon: 145.17 Height: 19.3 m
Data from the previous 72 hours. | See also: Recent months at Cape Sorell
Date/Time
EST
Temp

°C
Wind Pressure Rain
since 9am
mm
Weather Cloud Vis
km
Sea
Height
m
Swell
Dir
 
Speed
knots
Gust
knots
hPa Trend Height
m
Period
s
Dir
29/09:30pm 11.6 NNW 17 23 1021.0 - 1.4 - - - - - - -
29/09:25pm 11.4 NNW 19 29 1021.1 - 1.4 - - - - - - -
29/09:00pm 10.9 N 20 27 1021.4 - 1.4 - - - - - - -
29/08:30pm 11.3 NNW 22 31 1021.5 - 1.4 - - - - - - -
29/08:28pm 11.5 NNW 20 31 1021.5 - 1.4 - - - - - - -
29/08:00pm 11.2 NNW 18 25 1021.7 - 1.4 - - - - - - -
29/07:30pm 10.8 NNW 19 26 1021.8 - 1.4 - - - - - - -
29/07:00pm 10.6 NNW 20 26 1021.8 - 1.4 - - - - - - -
29/06:30pm 10.2 NNW 21 27 1021.8 - 1.2 - - - - - - -
29/06:00pm 10.3 NW 20 27 1021.9 - 1.2 Recent precip. - - - - - -
29/05:30pm 10.6 NNW 19 28 1021.9 - 1.2 - - - - - - -
29/05:26pm 10.7 NNW 18 28 1021.9 - 1.2 - - - - - - -
29/05:00pm 10.6 NNW 17 22 1022.2 - 1.0 - - - - - - -
29/04:30pm 11.0 NNW 20 26 1022.5 - 1.0 - - - - - - -
29/04:00pm 11.4 NNW 14 21 1022.8 - 1.0 - - - - - - -
29/03:30pm 11.4 NNW 13 18 1023.3 - 1.0 - - - - - - -
29/03:00pm 11.2 NNW 13 19 1023.6 - 1.0 - - - - - - -
29/02:30pm 11.1 NNW 14 20 1023.8 - 1.0 - - - - - - -
29/02:00pm 10.8 N 17 20 1024.2 - 1.0 - - - - - - -
29/01:30pm 10.4 NNW 12 19 1024.8 - 1.0 - - - - - - -
29/01:00pm 10.4 N 17 23 1025.1 - 0.6 - - - - - - -
29/12:30pm 10.3 N 16 20 1025.9 - 0.6 - - - - - - -
29/12:00pm 10.4 NW 12 16 1026.3 - 0.6 Recent precip. - - - - - -
29/11:30am 10.2 N 16 19 1026.6 - 0.2 - - - - - - -
29/11:00am 10.5 N 17 21 1027.0 - 0.0 - - - - - - -
29/10:30am 10.2 N 16 25 1027.2 - 0.0 - - - - - - -
29/10:00am 10.1 N 15 18 1027.4 - 0.0 - - - - - - -
29/09:30am 9.8 N 16 20 1027.4 - 0.0 - - - - - - -
29/09:00am 9.6 N 17 21 1027.6 - 3.0 Recent precip. - - - - - -
29/08:30am 9.7 N 14 17 1027.9 - 2.6 - - - - - - -
29/08:00am 9.7 N 17 21 1028.0 - 2.4 - - - - - - -
29/07:30am 9.4 N 14 17 1027.7 - 2.4 - - - - - - -
29/07:00am 9.2 N 16 21 1027.9 - 2.4 - - - - - - -
29/06:30am 9.5 N 15 19 1027.9 - 2.2 - - - - - - -
29/06:00am 9.6 N 15 18 1027.9 - 2.0 - - - - - - -
29/05:30am 9.4 N 14 17 1027.9 - 2.0 - - - - - - -
29/05:00am 9.7 N 13 18 1027.6 - 2.0 - - - - - - -
29/04:30am 9.9 NW 10 16 1028.0 - 2.0 - - - - - - -
29/04:00am 9.8 NNW 12 14 1028.0 - 2.0 - - - - - - -
29/03:30am 9.6 NW 10 12 1028.1 - 2.0 - - - - - - -
29/03:00am 9.8 NW 8 14 1028.4 - 2.0 Recent precip. - - - - - -
29/02:30am 9.7 NNW 6 10 1028.6 - 2.0 - - - - - - -
29/02:00am 9.8 NW 9 12 1028.5 - 1.8 - - - - - - -
29/01:30am 9.8 NW 12 14 1028.4 - 1.8 - - - - - - -
29/01:00am 10.0 NW 10 13 1028.5 - 1.8 - - - - - - -
29/12:30am 10.1 WNW 9 11 1028.7 - 1.8 - - - - - - -
29/12:00am 10.0 WNW 7 9 1029.1 - 1.8 - - - - - - -
 
Date/Time
EST
Temp

°C
Wind Pressure Rain
since 9am
mm
Weather Cloud Vis
km
Sea
Height
m
Swell
Dir
 
Speed
knots
Gust
knots
hPa Trend Height
m
Period
s
Dir
28/11:30pm 10.1 W 7 10 1029.3 - 1.8 - - - - - - -
28/11:00pm 10.2 W 8 11 1029.3 - 1.8 - - - - - - -
28/10:30pm 10.2 W 11 15 1029.2 - 1.8 - - - - - - -
28/10:00pm 10.1 WSW 12 15 1029.2 - 1.8 - - - - - - -
28/09:30pm 10.0 W 12 17 1029.1 - 1.8 - - - - - - -
28/09:00pm 10.2 WSW 16 20 1029.2 - 1.8 - - - - - - -
28/08:30pm 10.8 W 12 17 1029.2 - 1.8 - - - - - - -
28/08:00pm 10.5 W 12 14 1029.2 - 1.8 - - - - - - -
28/07:30pm 10.6 W 9 12 1029.2 - 1.8 - - - - - - -
28/07:00pm 10.6 W 11 15 1029.2 - 1.8 - - - - - - -
28/06:30pm 10.4 W 12 16 1029.0 - 1.8 - - - - - - -
28/06:00pm 10.4 W 11 16 1029.0 - 1.4 - - - - - - -
28/05:30pm 10.7 W 11 16 1028.5 - 1.4 - - - - - - -
28/05:00pm 10.7 W 11 17 1028.4 - 1.4 - - - - - - -
28/04:30pm 10.4 W 12 17 1028.3 - 1.4 - - - - - - -
28/04:00pm 11.1 W 12 15 1028.3 - 1.2 - - - - - - -
28/03:30pm 11.1 W 12 16 1028.2 - 1.2 - - - - - - -
28/03:00pm 10.9 W 15 24 1027.7 - 1.2 - - - - - - -
28/02:30pm 11.3 WSW 13 17 1027.8 - 1.2 - - - - - - -
28/02:00pm 11.2 WSW 14 17 1027.6 - 1.2 - - - - - - -
28/01:30pm 11.1 W 14 18 1027.7 - 1.2 - - - - - - -
28/01:00pm 10.7 WSW 18 22 1027.8 - 1.2 - - - - - - -
28/12:30pm 11.2 WSW 15 20 1027.9 - 1.0 - - - - - - -
28/12:00pm 11.2 WSW 17 20 1028.1 - 1.0 Recent precip. - - - - - -
28/11:30am 10.8 WSW 14 19 1028.4 - 1.0 - - - - - - -
28/11:00am 11.1 WSW 13 19 1028.5 - 0.6 - - - - - - -
28/10:30am 10.7 WSW 16 24 1028.3 - 0.6 - - - - - - -
28/10:00am 10.7 WSW 12 20 1028.2 - 0.6 - - - - - - -
28/09:30am 10.4 WSW 13 17 1028.1 - 0.6 - - - - - - -
28/09:00am 10.8 W 12 16 1027.9 - 3.4 Recent precip. - - - - - -
28/08:30am 10.4 WSW 11 15 1027.7 - 3.4 - - - - - - -
28/08:00am 10.6 WSW 13 15 1027.3 - 3.2 - - - - - - -
28/07:30am 10.3 SW 18 22 1026.9 - 3.2 - - - - - - -
28/07:15am 10.6 WSW 18 26 1026.5 - 3.2 - - - - - - -
28/07:00am 10.7 W 13 20 1026.6 - 3.0 - - - - - - -
28/06:30am 10.9 W 12 16 1026.4 - 2.8 - - - - - - -
28/06:00am 10.7 W 14 20 1026.0 - 2.8 - - - - - - -
28/05:30am 10.6 WSW 16 21 1025.7 - 2.8 - - - - - - -
28/05:00am 10.5 WSW 19 23 1025.6 - 2.8 - - - - - - -
28/04:30am 10.7 WSW 17 20 1025.5 - 2.8 - - - - - - -
28/04:00am 10.8 WSW 19 23 1025.3 - 2.8 - - - - - - -
28/03:30am 10.6 WSW 18 20 1025.5 - 2.8 - - - - - - -
28/03:00am 10.4 WSW 20 24 1025.4 - 2.8 - - - - - - -
28/02:30am 9.7 WSW 24 29 1024.9 - 2.8 - - - - - - -
28/02:00am 10.2 WSW 22 26 1024.5 - 2.8 - - - - - - -
28/01:30am 9.4 WSW 18 25 1024.5 - 2.8 - - - - - - -
28/01:00am 10.4 W 13 16 1024.6 - 2.2 - - - - - - -
28/12:30am 10.4 WSW 12 16 1024.4 - 2.2 - - - - - - -
28/12:00am 10.7 WSW 12 15 1024.4 - 2.2 - - - - - - -
 
Date/Time
EST
Temp

°C
Wind Pressure Rain
since 9am
mm
Weather Cloud Vis
km
Sea
Height
m
Swell
Dir
 
Speed
knots
Gust
knots
hPa Trend Height
m
Period
s
Dir
27/11:30pm 10.7 WSW 14 17 1024.5 - 2.2 - - - - - - -
27/11:00pm 10.5 WSW 15 18 1024.7 - 2.2 - - - - - - -
27/10:30pm 10.6 WSW 15 17 1024.6 - 2.2 - - - - - - -
27/10:00pm 10.6 WSW 17 19 1024.4 - 2.2 - - - - - - -
27/09:30pm 10.3 SW 20 23 1024.1 - 2.2 - - - - - - -
27/09:00pm 10.2 WSW 19 22 1024.0 - 2.2 - - - - - - -
27/08:30pm 10.0 SW 21 28 1023.7 - 2.2 - - - - - - -
27/08:00pm 10.7 SW 20 23 1023.4 - 2.2 - - - - - - -
27/07:30pm 10.5 WSW 18 22 1022.9 - 2.2 - - - - - - -
27/07:00pm 10.5 WSW 18 23 1022.5 - 2.2 - - - - - - -
27/06:30pm 10.2 WSW 18 21 1022.2 - 2.2 - - - - - - -
27/06:00pm 10.4 WSW 16 20 1021.9 - 2.2 - - - - - - -
27/05:30pm 10.1 WSW 13 17 1021.8 - 2.2 - - - - - - -
27/05:00pm 10.5 WSW 14 17 1021.7 - 2.2 - - - - - - -
27/04:30pm 10.8 WSW 18 21 1021.5 - 2.2 - - - - - - -
27/04:00pm 10.7 WSW 19 21 1021.3 - 2.2 - - - - - - -
27/03:30pm 10.7 WSW 21 26 1021.0 - 2.2 - - - - - - -
27/03:00pm 10.4 WSW 18 22 1020.9 - 2.2 Recent precip. - - - - - -
27/02:30pm 9.9 SW 19 24 1020.7 - 2.2 - - - - - - -
27/02:16pm 10.4 WSW 23 34 1020.0 - 2.0 - - - - - - -
27/02:00pm 11.1 WSW 21 25 1020.3 - 2.0 - - - - - - -
27/01:30pm 10.4 SW 20 25 1020.1 - 2.0 - - - - - - -
27/01:11pm 9.0 SW 23 33 1020.3 - 2.0 - - - - - - -
27/01:00pm 11.0 SW 23 28 1020.2 - 1.6 - - - - - - -
27/12:30pm 10.3 SW 25 29 1020.0 - 1.6 - - - - - - -
27/12:00pm 9.6 SW 23 29 1020.0 - 1.6 Recent precip. - - - - - -
27/11:30am 8.4 SW 24 31 1020.3 - 1.6 - - - - - - -
27/11:00am 10.0 SW 22 27 1020.1 - 0.6 - - - - - - -
27/10:30am 9.3 SW 24 28 1019.7 - 0.6 - - - - - - -
27/10:09am 9.1 SW 31 43 1019.0 - 0.4 - - - - - - -
27/10:00am 9.1 SW 25 31 1019.5 - 0.4 - - - - - - -
27/09:49am 8.2 SW 31 41 1019.4 - 0.2 - - - - - - -
27/09:40am 8.5 SW 33 42 1019.0 - 0.0 - - - - - - -
27/09:30am 9.7 WSW 32 38 1018.5 - 0.0 - - - - - - -
27/09:00am 9.8 WSW 34 41 1017.8 - 4.6 Recent precip. - - - - - -
27/08:47am 9.8 WSW 32 41 1016.9 - 4.6 - - - - - - -
27/08:30am 9.2 WSW 25 36 1017.3 - 4.6 - - - - - - -
27/08:28am 8.9 WSW 23 36 1017.5 - 4.6 - - - - - - -
27/08:00am 9.0 WSW 26 31 1017.3 - 2.8 - - - - - - -
27/07:30am 8.9 WSW 22 29 1017.2 - 2.4 - - - - - - -
27/07:00am 8.7 WSW 24 29 1017.3 - 2.4 - - - - - - -
27/06:30am 8.8 WSW 23 28 1017.3 - 2.4 - - - - - - -
27/06:00am 8.7 SW 24 31 1016.8 - 2.4 - - - - - - -
27/05:30am 8.2 SW 27 33 1016.6 - 2.4 - - - - - - -
27/05:00am 7.8 SW 24 28 1016.5 - 2.4 - - - - - - -
27/04:37am 7.0 SW 26 36 1016.5 - 2.4 - - - - - - -
27/04:30am 7.4 SW 29 36 1016.2 - 2.2 - - - - - - -
27/04:00am 7.4 SW 26 31 1016.0 - 2.2 - - - - - - -
27/03:30am 6.7 SW 25 29 1015.9 - 2.0 - - - - - - -
27/03:00am 8.1 SW 28 35 1015.5 - 2.0 - - - - - - -
27/02:30am 7.5 SW 26 32 1015.5 - 2.0 - - - - - - -
27/02:00am 7.1 SW 23 29 1015.3 - 2.0 - - - - - - -
27/01:48am 6.3 SW 33 45 1015.4 - 2.0 - - - - - - -
27/01:39am 6.8 SW 27 41 1014.5 - 2.0 - - - - - - -
27/01:37am 7.2 SW 24 36 1015.0 - 2.0 - - - - - - -
27/01:30am 7.1 SW 26 32 1014.9 - 2.0 - - - - - - -
27/01:00am 7.8 SW 26 35 1014.0 - 2.0 - - - - - - -
27/12:30am 7.3 SSW 26 33 1013.9 - 2.0 - - - - - - -
27/12:01am 7.0 SW 25 35 1013.4 - 2.0 - - - - - - -
27/12:00am 6.7 SW 24 32 1013.6 - 2.0 Recent precip. - - - - - -
 
Date/Time
EST
Temp

°C
Wind Pressure Rain
since 9am
mm
Weather Cloud Vis
km
Sea
Height
m
Swell
Dir
 
Speed
knots
Gust
knots
hPa Trend Height
m
Period
s
Dir
26/11:44pm 7.3 SW 28 42 1013.2 - 1.6 - - - - - - -
26/11:30pm 6.3 SW 24 31 1013.0 - 1.6 - - - - - - -
26/11:27pm 6.0 SW 26 35 1013.2 - 1.6 - - - - - - -
26/11:20pm 5.4 SW 23 35 1013.1 - 1.4 - - - - - - -
26/11:18pm 6.5 SW 21 33 1013.3 - 1.4 - - - - - - -
26/11:07pm 5.8 SW 28 36 1013.1 - 1.4 - - - - - - -
26/11:00pm 6.4 SW 33 42 1012.5 - 1.4 - - - - - - -
26/10:53pm 7.1 WSW 31 42 1011.9 - 1.0 - - - - - - -
26/10:30pm 7.4 SW 25 33 1011.7 - 1.0 - - - - - - -
26/10:20pm 6.0 SW 33 41 1011.9 - 1.0 - - - - - - -
26/10:05pm 7.1 SW 34 42 1010.7 - 1.0 - - - - - - -
26/10:00pm 7.4 SW 28 39 1010.7 - 1.0 - - - - - - -
26/09:59pm 7.5 SW 27 39 1010.8 - 1.0 - - - - - - -
26/09:44pm 6.3 SW 32 47 1011.1 - 1.0 - - - - - - -
26/09:38pm 5.9 SW 36 49 1010.9 - 1.0 - - - - - - -
26/09:35pm 6.7 SW 35 49 1009.9 - 1.0 - - - - - - -
26/09:33pm 7.7 SW 33 47 1010.2 - 1.0 - - - - - - -

Other Formats:

Comma delimited format used in spreadsheet applications
http://www.bom.gov.au/fwo/IDT60701/IDT60701.94974.axf

JavaScript Object Notation format (JSON) in row-major order
http://www.bom.gov.au/fwo/IDT60701/IDT60701.94974.json